Time;durP1;ratioP1;P1;durP2;ratioP2;P2;SDS_P1;SDS_P2;PMS_P1;PMS_P2;Temp;Humidity;BMP_temperature;BMP_pressure;BME280_temperature;BME280_humidity;BME280_pressure;Samples;Min_cycle;Max_cycle;Signal;HPM_P1;HPM_P2
2021/12/23 00:00:11;;;;;;;54.17;25.02;;;;;;;;;;5054522;28;20102;-67
2021/12/23 00:02:38;;;;;;;56.22;25.55;;;;;;;;;;5054446;28;20020;-66
2021/12/23 00:05:06;;;;;;;55.20;26.27;;;;;;;;;;5054132;28;20041;-67
2021/12/23 00:07:32;;;;;;;49.78;25.20;;;;;;;;;;5054336;28;20029;-66
2021/12/23 00:10:06;;;;;;;54.97;26.92;;;;;;;;;;5053441;28;20052;-67
2021/12/23 00:12:35;;;;;;;42.42;22.38;;;;;;;;;;5053465;28;20033;-66
2021/12/23 00:15:02;;;;;;;54.95;27.35;;;;;;;;;;5052746;28;20113;-66
2021/12/23 00:17:54;;;;;;;58.10;28.33;;;;;;;;;;5053260;28;20033;-66
2021/12/23 00:25:25;;;;;;;44.45;22.83;;;;;;;;;;5033237;28;20036;-67
2021/12/23 00:27:51;;;;;;;59.17;25.65;;;;;;;;;;5033371;28;20069;-67
2021/12/23 00:30:16;;;;;;;39.35;20.10;;;;;;;;;;5032957;28;20138;-67
2021/12/23 00:32:42;;;;;;;49.78;24.55;;;;;;;;;;5032954;28;20029;-67
2021/12/23 00:35:09;;;;;;;44.90;21.33;;;;;;;;;;5005418;28;20065;-66
2021/12/23 00:37:39;;;;;;;42.10;21.17;;;;;;;;;;4993466;28;20105;-67
2021/12/23 00:40:07;;;;;;;43.55;21.05;;;;;;;;;;4996018;28;20045;-65
2021/12/23 00:42:34;;;;;;;38.08;20.38;;;;;;;;;;5008563;28;20041;-67
2021/12/23 00:45:00;;;;;;;39.42;21.42;;;;;;;;;;5013969;28;20048;-67
2021/12/23 00:47:26;;;;;;;45.83;21.27;;;;;;;;;;5013956;28;20108;-67
2021/12/23 00:49:52;;;;;;;40.13;18.75;;;;;;;;;;5004519;28;20057;-66
2021/12/23 00:52:24;;;;;;;41.58;21.23;;;;;;;;;;5005925;28;20126;-68
2021/12/23 00:54:50;;;;;;;41.37;22.10;;;;;;;;;;4993222;28;20038;-67
2021/12/23 00:57:17;;;;;;;46.08;23.15;;;;;;;;;;4997491;28;20037;-67
2021/12/23 00:59:43;;;;;;;51.55;26.33;;;;;;;;;;5004348;28;20068;-67
2021/12/23 01:02:11;;;;;;;43.72;22.63;;;;;;;;;;5007648;28;20022;-66
2021/12/23 01:04:37;;;;;;;56.05;25.33;;;;;;;;;;5009733;28;20449;-67
2021/12/23 01:07:03;;;;;;;31.20;18.08;;;;;;;;;;4995800;28;20026;-66
2021/12/23 01:09:29;;;;;;;34.28;17.52;;;;;;;;;;4993797;28;20358;-66
2021/12/23 01:11:56;;;;;;;34.17;18.00;;;;;;;;;;4993914;28;20037;-67
2021/12/23 01:17:22;;;;;;;29.95;16.42;;;;;;;;;;4993832;28;20113;-66
2021/12/23 01:19:39;;;;;;;31.38;17.13;;;;;;;;;;4993302;28;20421;-66
2021/12/23 01:22:06;;;;;;;31.88;17.45;;;;;;;;;;5003697;28;20168;-67
2021/12/23 01:24:33;;;;;;;35.33;17.35;;;;;;;;;;5007090;28;20046;-68
2021/12/23 01:27:01;;;;;;;30.23;14.95;;;;;;;;;;5006777;28;20101;-67
2021/12/23 01:29:27;;;;;;;32.75;16.70;;;;;;;;;;5006592;28;20034;-66
2021/12/23 01:31:52;;;;;;;32.17;16.83;;;;;;;;;;5004071;28;20085;-68
2021/12/23 01:34:18;;;;;;;32.85;16.42;;;;;;;;;;5002082;28;20022;-68
2021/12/23 01:36:44;;;;;;;33.58;16.80;;;;;;;;;;4999898;28;20042;-66
2021/12/23 01:39:10;;;;;;;31.33;16.63;;;;;;;;;;5003803;28;20384;-68
2021/12/23 01:41:35;;;;;;;27.48;15.70;;;;;;;;;;5008636;28;20038;-66
2021/12/23 01:44:03;;;;;;;33.75;16.77;;;;;;;;;;5014826;28;20153;-67
2021/12/23 01:46:29;;;;;;;30.65;16.50;;;;;;;;;;5026900;28;20088;-66
2021/12/23 01:48:55;;;;;;;27.77;16.10;;;;;;;;;;5027932;28;20033;-67
2021/12/23 01:51:20;;;;;;;37.65;18.27;;;;;;;;;;5026853;28;20468;-66
2021/12/23 01:53:47;;;;;;;29.23;16.52;;;;;;;;;;5020006;28;20029;-68
2021/12/23 01:56:13;;;;;;;35.75;17.25;;;;;;;;;;5018163;28;20038;-68
2021/12/23 01:58:40;;;;;;;29.00;16.75;;;;;;;;;;5029091;28;20037;-66
2021/12/23 02:01:09;;;;;;;27.38;16.27;;;;;;;;;;5028940;28;20029;-66
2021/12/23 02:03:35;;;;;;;27.58;16.48;;;;;;;;;;5027228;28;20022;-67
2021/12/23 02:06:01;;;;;;;32.70;17.83;;;;;;;;;;5024925;28;20124;-66
2021/12/23 02:08:27;;;;;;;36.33;17.55;;;;;;;;;;5025294;28;20069;-68
2021/12/23 02:10:54;;;;;;;39.35;16.48;;;;;;;;;;5026133;28;20062;-66
2021/12/23 02:13:22;;;;;;;31.75;17.42;;;;;;;;;;5027189;28;20025;-69
2021/12/23 02:15:48;;;;;;;31.75;17.55;;;;;;;;;;5026080;28;20044;-67
2021/12/23 02:18:13;;;;;;;35.95;17.98;;;;;;;;;;5024176;28;20030;-66
2021/12/23 02:20:39;;;;;;;33.78;16.23;;;;;;;;;;5024096;28;20072;-70
2021/12/23 02:23:08;;;;;;;37.53;16.45;;;;;;;;;;5022074;28;20052;-69
2021/12/23 02:25:34;;;;;;;36.20;16.15;;;;;;;;;;5016855;28;20033;-67
2021/12/23 02:28:07;;;;;;;29.77;15.93;;;;;;;;;;5016724;28;20397;-69
2021/12/23 02:30:37;;;;;;;32.22;16.13;;;;;;;;;;5016289;28;20499;-67
2021/12/23 02:33:05;;;;;;;29.27;14.93;;;;;;;;;;5012943;28;20472;-69
2021/12/23 02:35:31;;;;;;;35.75;17.75;;;;;;;;;;5012219;28;20038;-67
2021/12/23 02:37:56;;;;;;;33.75;16.77;;;;;;;;;;5011770;28;20112;-66
2021/12/23 02:40:29;;;;;;;34.58;16.17;;;;;;;;;;5011940;28;20061;-66
2021/12/23 02:43:12;;;;;;;29.47;16.23;;;;;;;;;;5011780;28;20432;-66
2021/12/23 02:45:39;;;;;;;34.30;17.92;;;;;;;;;;5011993;28;20080;-65
2021/12/23 02:48:13;;;;;;;26.10;13.68;;;;;;;;;;5011992;28;20033;-67
2021/12/23 02:50:41;;;;;;;20.75;11.80;;;;;;;;;;5011924;28;20477;-66
2021/12/23 02:53:07;;;;;;;22.33;13.15;;;;;;;;;;5012051;28;20044;-66
2021/12/23 02:55:33;;;;;;;26.08;13.70;;;;;;;;;;5011784;28;20069;-66
2021/12/23 02:57:59;;;;;;;31.45;14.75;;;;;;;;;;5012054;28;20088;-67
2021/12/23 03:00:25;;;;;;;22.55;12.85;;;;;;;;;;5012104;28;20033;-65
2021/12/23 03:02:50;;;;;;;22.60;12.95;;;;;;;;;;5012006;28;20449;-66
2021/12/23 03:05:16;;;;;;;20.15;11.85;;;;;;;;;;5011557;28;20030;-66
2021/12/23 03:07:43;;;;;;;22.70;12.55;;;;;;;;;;5011618;28;20511;-66
2021/12/23 03:10:10;;;;;;;25.63;13.55;;;;;;;;;;5009042;28;20044;-66
2021/12/23 03:12:36;;;;;;;27.85;14.40;;;;;;;;;;4994431;28;20037;-65
2021/12/23 03:15:03;;;;;;;24.50;13.50;;;;;;;;;;4994784;28;20038;-67
2021/12/23 03:17:30;;;;;;;22.20;12.38;;;;;;;;;;4995684;28;20110;-66
2021/12/23 03:19:56;;;;;;;22.52;12.15;;;;;;;;;;4995637;28;20052;-67
2021/12/23 03:22:21;;;;;;;24.25;12.93;;;;;;;;;;4995654;28;20509;-67
2021/12/23 03:24:47;;;;;;;27.15;11.35;;;;;;;;;;4995615;28;20064;-66
2021/12/23 03:27:13;;;;;;;24.23;11.90;;;;;;;;;;4995596;28;20051;-66
2021/12/23 03:29:39;;;;;;;22.48;11.68;;;;;;;;;;4995449;28;20169;-67
2021/12/23 03:32:05;;;;;;;19.73;10.93;;;;;;;;;;4995373;28;20045;-65
2021/12/23 03:34:31;;;;;;;28.25;11.52;;;;;;;;;;4994971;28;20084;-67
2021/12/23 03:36:57;;;;;;;20.40;11.25;;;;;;;;;;4995153;28;20101;-67
2021/12/23 03:39:23;;;;;;;22.08;11.70;;;;;;;;;;4995594;28;20391;-66
2021/12/23 03:41:49;;;;;;;19.02;10.23;;;;;;;;;;4995620;28;20035;-66
2021/12/23 03:44:15;;;;;;;23.50;10.30;;;;;;;;;;4995198;28;20142;-66
2021/12/23 03:46:41;;;;;;;20.13;10.55;;;;;;;;;;4995029;28;20037;-66
2021/12/23 03:49:08;;;;;;;17.13;10.63;;;;;;;;;;4995120;28;20038;-66
2021/12/23 03:51:35;;;;;;;18.63;9.73;;;;;;;;;;4995560;28;20046;-66
2021/12/23 03:54:01;;;;;;;16.35;9.88;;;;;;;;;;4995284;28;20038;-67
2021/12/23 03:56:28;;;;;;;19.00;9.85;;;;;;;;;;4994925;28;20093;-67
2021/12/23 03:58:56;;;;;;;17.45;9.82;;;;;;;;;;4994775;28;20121;-66
2021/12/23 04:01:24;;;;;;;16.17;9.68;;;;;;;;;;4995358;28;20114;-66
2021/12/23 04:03:51;;;;;;;18.52;10.27;;;;;;;;;;4994921;28;20157;-66
2021/12/23 04:06:18;;;;;;;20.85;9.95;;;;;;;;;;4994341;28;20041;-68
2021/12/23 04:08:44;;;;;;;20.27;10.38;;;;;;;;;;4994419;28;20125;-66
2021/12/23 04:11:10;;;;;;;16.70;9.98;;;;;;;;;;4995015;28;20114;-67
2021/12/23 04:13:36;;;;;;;18.05;11.18;;;;;;;;;;4995102;28;20465;-66
2021/12/23 04:16:02;;;;;;;25.95;12.18;;;;;;;;;;4994686;28;20444;-67
2021/12/23 04:18:27;;;;;;;28.75;14.50;;;;;;;;;;4995183;28;20089;-66
2021/12/23 04:20:53;;;;;;;32.08;15.88;;;;;;;;;;4994819;28;20081;-66
2021/12/23 04:23:31;;;;;;;29.85;16.77;;;;;;;;;;4994643;28;20449;-70
2021/12/23 04:25:58;;;;;;;37.42;16.48;;;;;;;;;;4992698;28;20058;-66
2021/12/23 04:28:24;;;;;;;31.90;17.17;;;;;;;;;;4994017;28;20085;-67
2021/12/23 04:30:51;;;;;;;35.15;17.90;;;;;;;;;;4994352;28;20121;-68
2021/12/23 04:33:17;;;;;;;36.67;16.48;;;;;;;;;;4994100;28;20035;-66
2021/12/23 04:35:43;;;;;;;29.33;15.75;;;;;;;;;;4993882;28;20369;-66
2021/12/23 04:38:09;;;;;;;27.63;14.75;;;;;;;;;;4993836;28;20030;-66
2021/12/23 04:40:37;;;;;;;22.13;12.38;;;;;;;;;;4994151;28;20058;-67
2021/12/23 04:43:07;;;;;;;24.20;11.60;;;;;;;;;;4993848;28;20485;-66
2021/12/23 04:45:33;;;;;;;24.65;12.75;;;;;;;;;;4993675;28;20111;-67
2021/12/23 04:47:58;;;;;;;24.27;11.70;;;;;;;;;;4991710;28;20366;-67
2021/12/23 04:50:25;;;;;;;26.98;12.38;;;;;;;;;;4994068;28;20038;-68
2021/12/23 04:52:51;;;;;;;20.58;10.70;;;;;;;;;;4992563;28;20072;-66
2021/12/23 04:55:17;;;;;;;24.45;12.63;;;;;;;;;;4993441;28;20192;-66
2021/12/23 04:57:44;;;;;;;31.50;13.13;;;;;;;;;;4994505;28;20026;-67
2021/12/23 05:00:14;;;;;;;32.30;14.35;;;;;;;;;;4995134;28;20053;-67
2021/12/23 05:02:40;;;;;;;32.10;15.10;;;;;;;;;;4994921;28;20346;-66
2021/12/23 05:05:06;;;;;;;31.60;13.43;;;;;;;;;;4994498;28;20026;-68
2021/12/23 05:07:32;;;;;;;26.50;13.05;;;;;;;;;;4994596;28;20034;-68
2021/12/23 05:09:58;;;;;;;30.60;14.07;;;;;;;;;;4994575;28;20350;-71
2021/12/23 05:12:23;;;;;;;34.40;13.98;;;;;;;;;;4994152;28;20038;-67
2021/12/23 05:14:49;;;;;;;25.90;11.18;;;;;;;;;;4994128;28;20027;-67
2021/12/23 05:17:15;;;;;;;17.13;9.13;;;;;;;;;;5008868;28;20045;-67
2021/12/23 05:19:42;;;;;;;20.75;9.50;;;;;;;;;;4999838;28;20026;-67
2021/12/23 05:22:08;;;;;;;16.83;9.02;;;;;;;;;;4994410;28;20073;-67
2021/12/23 05:24:33;;;;;;;16.80;8.82;;;;;;;;;;4994369;28;20385;-67
2021/12/23 05:27:00;;;;;;;14.55;8.90;;;;;;;;;;4993673;28;20027;-67
2021/12/23 05:29:26;;;;;;;17.70;8.52;;;;;;;;;;4993970;28;20124;-67
2021/12/23 05:31:51;;;;;;;15.90;9.23;;;;;;;;;;4998673;28;20037;-67
2021/12/23 05:34:17;;;;;;;18.98;9.38;;;;;;;;;;4999604;28;20537;-68
2021/12/23 05:36:43;;;;;;;19.27;8.73;;;;;;;;;;4993128;28;20035;-68
2021/12/23 05:39:09;;;;;;;15.43;8.25;;;;;;;;;;4993582;28;20038;-66
2021/12/23 05:41:35;;;;;;;18.27;9.15;;;;;;;;;;4993836;28;20035;-66
2021/12/23 05:44:02;;;;;;;19.27;10.07;;;;;;;;;;4993558;28;20454;-68
2021/12/23 05:46:28;;;;;;;22.85;10.38;;;;;;;;;;4993127;28;20042;-67
2021/12/23 05:48:54;;;;;;;24.95;10.60;;;;;;;;;;4993453;28;20045;-67
2021/12/23 05:51:20;;;;;;;31.20;13.50;;;;;;;;;;4998010;28;20360;-66
2021/12/23 05:53:46;;;;;;;27.17;11.75;;;;;;;;;;5012842;28;20424;-67
2021/12/23 05:56:12;;;;;;;25.48;12.13;;;;;;;;;;4991992;28;20117;-67
2021/12/23 05:58:38;;;;;;;31.42;13.93;;;;;;;;;;4992256;28;20117;-70
2021/12/23 06:01:05;;;;;;;31.20;14.32;;;;;;;;;;5025508;28;20083;-69
2021/12/23 06:03:31;;;;;;;30.30;12.35;;;;;;;;;;5031915;28;20325;-71
2021/12/23 06:05:57;;;;;;;26.45;12.27;;;;;;;;;;5031274;28;20037;-70
2021/12/23 06:08:23;;;;;;;16.25;10.05;;;;;;;;;;5031092;28;20095;-76
2021/12/23 06:10:49;;;;;;;15.80;9.38;;;;;;;;;;5013473;28;20389;-71
2021/12/23 06:13:15;;;;;;;24.27;10.45;;;;;;;;;;4998706;28;20026;-74
2021/12/23 06:15:41;;;;;;;22.23;10.15;;;;;;;;;;5009813;28;20551;-74
2021/12/23 06:18:06;;;;;;;19.15;9.88;;;;;;;;;;5009907;28;20030;-76
2021/12/23 06:20:32;;;;;;;22.08;10.75;;;;;;;;;;5010596;28;20041;-74
2021/12/23 06:22:58;;;;;;;34.00;12.07;;;;;;;;;;5010315;28;20056;-73
2021/12/23 06:25:24;;;;;;;35.30;15.38;;;;;;;;;;5010718;28;20084;-69
2021/12/23 06:27:49;;;;;;;19.50;10.75;;;;;;;;;;5010685;28;20046;-69
2021/12/23 06:30:19;;;;;;;19.73;10.48;;;;;;;;;;5011476;28;20472;-69
2021/12/23 06:32:52;;;;;;;20.25;10.30;;;;;;;;;;5011283;28;20061;-68
2021/12/23 06:35:21;;;;;;;39.90;11.80;;;;;;;;;;5010358;28;20030;-70
2021/12/23 06:37:47;;;;;;;24.83;10.57;;;;;;;;;;5011321;28;20108;-68
2021/12/23 06:40:13;;;;;;;24.40;9.88;;;;;;;;;;5011441;28;20480;-69
2021/12/23 06:42:39;;;;;;;12.80;8.18;;;;;;;;;;5012356;28;20068;-69
2021/12/23 06:45:06;;;;;;;14.93;8.63;;;;;;;;;;5012599;28;20081;-73
2021/12/23 06:47:33;;;;;;;17.48;9.10;;;;;;;;;;5009255;28;20045;-70
2021/12/23 06:49:59;;;;;;;38.50;11.07;;;;;;;;;;5003130;28;20512;-70
2021/12/23 06:52:25;;;;;;;21.27;10.20;;;;;;;;;;4995953;28;20026;-68
2021/12/23 06:54:54;;;;;;;18.27;10.50;;;;;;;;;;4996296;28;20037;-69
2021/12/23 06:57:21;;;;;;;18.73;9.95;;;;;;;;;;4996310;28;20026;-69
2021/12/23 06:59:46;;;;;;;17.52;10.48;;;;;;;;;;4995586;28;20117;-69
2021/12/23 07:02:12;;;;;;;19.92;10.50;;;;;;;;;;4995010;28;20130;-68
2021/12/23 07:04:40;;;;;;;18.13;9.35;;;;;;;;;;4996164;28;20030;-72
2021/12/23 07:07:10;;;;;;;17.65;9.52;;;;;;;;;;4996091;28;20473;-69
2021/12/23 07:09:44;;;;;;;21.45;9.90;;;;;;;;;;5011524;28;20030;-69
2021/12/23 07:12:12;;;;;;;18.95;10.18;;;;;;;;;;5015561;28;20034;-70
2021/12/23 07:14:39;;;;;;;19.50;10.13;;;;;;;;;;5015523;28;20396;-70
2021/12/23 07:17:06;;;;;;;19.55;11.18;;;;;;;;;;5015537;28;20026;-69
2021/12/23 07:19:32;;;;;;;17.67;9.48;;;;;;;;;;5015476;28;20152;-70
2021/12/23 07:21:58;;;;;;;21.63;10.48;;;;;;;;;;5013929;28;20066;-70
2021/12/23 07:24:24;;;;;;;20.60;10.50;;;;;;;;;;5015356;28;20026;-70
2021/12/23 07:26:50;;;;;;;37.30;12.13;;;;;;;;;;5015038;28;20030;-70
2021/12/23 07:29:16;;;;;;;26.67;10.15;;;;;;;;;;5015038;28;20510;-73
2021/12/23 07:31:42;;;;;;;16.80;9.32;;;;;;;;;;5015441;28;20029;-71
2021/12/23 07:34:08;;;;;;;21.33;9.18;;;;;;;;;;5015152;28;20036;-70
2021/12/23 07:36:35;;;;;;;22.42;11.07;;;;;;;;;;5014943;28;20034;-72
2021/12/23 07:39:06;;;;;;;17.33;9.55;;;;;;;;;;5014888;28;20030;-70
2021/12/23 07:41:33;;;;;;;19.05;9.23;;;;;;;;;;5014992;28;20057;-70
2021/12/23 07:44:02;;;;;;;15.85;8.73;;;;;;;;;;5014854;28;20109;-68
2021/12/23 07:46:36;;;;;;;16.63;9.02;;;;;;;;;;5015016;28;20041;-68
2021/12/23 07:49:03;;;;;;;16.20;8.65;;;;;;;;;;5015006;28;20133;-70
2021/12/23 07:51:29;;;;;;;15.38;9.35;;;;;;;;;;5014348;28;20037;-69
2021/12/23 07:53:55;;;;;;;20.80;10.02;;;;;;;;;;5015141;28;20030;-68
2021/12/23 07:56:23;;;;;;;17.35;9.13;;;;;;;;;;5014757;28;20049;-72
2021/12/23 07:58:49;;;;;;;19.20;10.70;;;;;;;;;;5014111;28;20046;-69
2021/12/23 08:01:15;;;;;;;28.38;11.68;;;;;;;;;;5015755;28;20080;-70
2021/12/23 08:03:41;;;;;;;16.38;8.60;;;;;;;;;;5014403;28;20109;-70
2021/12/23 08:06:07;;;;;;;18.23;10.38;;;;;;;;;;5013966;28;20125;-69
2021/12/23 08:08:33;;;;;;;22.98;10.85;;;;;;;;;;5014407;28;20037;-68
2021/12/23 08:10:58;;;;;;;19.17;9.15;;;;;;;;;;5014598;28;20022;-66
2021/12/23 08:13:24;;;;;;;20.30;9.57;;;;;;;;;;5014366;28;20400;-67
2021/12/23 08:15:50;;;;;;;17.38;8.95;;;;;;;;;;5014515;28;20049;-66
2021/12/23 08:18:16;;;;;;;24.80;9.38;;;;;;;;;;5014280;28;20026;-67
2021/12/23 08:20:42;;;;;;;19.55;9.35;;;;;;;;;;5013879;28;20022;-68
2021/12/23 08:23:08;;;;;;;15.90;8.15;;;;;;;;;;5014399;28;20052;-67
2021/12/23 08:25:34;;;;;;;17.40;8.52;;;;;;;;;;5014347;28;20034;-68
2021/12/23 08:28:00;;;;;;;23.02;9.40;;;;;;;;;;5013849;28;20057;-66
2021/12/23 08:30:26;;;;;;;27.42;12.30;;;;;;;;;;4996261;28;20472;-66
2021/12/23 08:32:52;;;;;;;16.23;9.65;;;;;;;;;;5014225;28;20026;-68
2021/12/23 08:35:19;;;;;;;15.77;9.57;;;;;;;;;;5014134;28;20080;-67
2021/12/23 08:37:47;;;;;;;20.77;11.52;;;;;;;;;;5014201;28;20036;-68
2021/12/23 08:40:16;;;;;;;21.08;11.13;;;;;;;;;;5014144;28;20072;-67
2021/12/23 08:42:42;;;;;;;17.95;10.27;;;;;;;;;;5012601;28;20038;-67
2021/12/23 08:45:08;;;;;;;25.40;12.60;;;;;;;;;;5012725;28;20049;-67
2021/12/23 08:47:35;;;;;;;15.23;9.07;;;;;;;;;;5013963;28;20531;-66
2021/12/23 08:50:07;;;;;;;21.35;10.48;;;;;;;;;;5013911;28;20072;-67
2021/12/23 08:52:34;;;;;;;18.95;10.32;;;;;;;;;;5013886;28;20101;-68
2021/12/23 08:54:59;;;;;;;19.70;10.27;;;;;;;;;;5013387;28;20026;-67
2021/12/23 08:57:25;;;;;;;22.08;10.82;;;;;;;;;;5012314;28;20095;-68
2021/12/23 08:59:51;;;;;;;20.65;9.20;;;;;;;;;;5013337;28;20029;-66
2021/12/23 09:02:17;;;;;;;20.20;9.90;;;;;;;;;;5013323;28;20042;-68
2021/12/23 09:04:43;;;;;;;16.02;9.38;;;;;;;;;;5012944;28;20022;-67
2021/12/23 09:07:11;;;;;;;16.02;9.40;;;;;;;;;;5013110;28;20095;-67
2021/12/23 09:09:37;;;;;;;15.68;10.05;;;;;;;;;;5012672;28;20022;-67
2021/12/23 09:12:05;;;;;;;18.13;10.13;;;;;;;;;;5011527;28;20465;-69
2021/12/23 09:14:32;;;;;;;22.90;10.80;;;;;;;;;;5012637;28;20113;-71
2021/12/23 09:16:58;;;;;;;18.13;9.00;;;;;;;;;;5013887;28;20048;-70
2021/12/23 09:19:24;;;;;;;20.02;10.98;;;;;;;;;;5012452;28;20025;-68
2021/12/23 09:21:50;;;;;;;15.13;9.13;;;;;;;;;;5012289;28;20064;-78
2021/12/23 09:24:16;;;;;;;16.63;9.07;;;;;;;;;;5013109;28;20033;-77
2021/12/23 09:26:54;;;;;;;15.85;9.25;;;;;;;;;;5013057;28;20382;-69
2021/12/23 09:33:08;;;;;;;20.45;10.20;;;;;;;;;;5013115;28;20517;-68
2021/12/23 09:35:03;;;;;;;16.98;9.30;;;;;;;;;;5011867;28;20485;-67
2021/12/23 09:37:29;;;;;;;18.05;9.02;;;;;;;;;;5012716;28;20037;-67
2021/12/23 09:39:57;;;;;;;14.20;7.53;;;;;;;;;;5012362;28;20030;-68
2021/12/23 09:42:29;;;;;;;15.32;8.52;;;;;;;;;;5011848;28;20018;-67
2021/12/23 09:44:59;;;;;;;16.05;8.68;;;;;;;;;;5012614;28;20038;-67
2021/12/23 09:47:30;;;;;;;12.25;7.50;;;;;;;;;;5011994;28;20504;-67
2021/12/23 09:49:58;;;;;;;17.38;9.18;;;;;;;;;;5012241;28;20062;-67
2021/12/23 09:52:27;;;;;;;14.48;8.60;;;;;;;;;;5012218;28;20065;-67
2021/12/23 09:54:55;;;;;;;13.48;7.97;;;;;;;;;;5012688;28;20075;-67
2021/12/23 09:57:21;;;;;;;14.68;8.25;;;;;;;;;;5012491;28;20026;-68
2021/12/23 09:59:47;;;;;;;13.40;8.25;;;;;;;;;;5012370;28;20033;-66
2021/12/23 10:02:12;;;;;;;20.63;8.38;;;;;;;;;;5012432;28;20025;-69
2021/12/23 10:04:38;;;;;;;20.90;9.13;;;;;;;;;;5011375;28;20034;-67
2021/12/23 10:07:04;;;;;;;19.35;8.50;;;;;;;;;;5011268;28;20030;-66
2021/12/23 10:09:43;;;;;;;17.75;9.45;;;;;;;;;;5009771;28;20042;-69
2021/12/23 10:31:51;;;;;;;17.52;10.68;;;;;;;;;;5012260;28;20038;-66
2021/12/23 10:37:23;;;;;;;20.48;11.05;;;;;;;;;;5011971;28;20436;-67
2021/12/23 10:40:10;;;;;;;15.90;9.88;;;;;;;;;;5010862;28;20057;-66
2021/12/23 10:42:36;;;;;;;17.65;9.18;;;;;;;;;;5012040;28;20046;-68
2021/12/23 10:45:11;;;;;;;14.52;9.70;;;;;;;;;;5012317;28;20030;-68
2021/12/23 10:50:20;;;;;;;18.65;10.35;;;;;;;;;;5012021;28;20029;-68
2021/12/23 10:52:59;;;;;;;19.27;9.73;;;;;;;;;;5011668;28;20034;-68
2021/12/23 10:58:07;;;;;;;17.25;9.68;;;;;;;;;;5011358;28;20362;-67
2021/12/23 11:00:36;;;;;;;16.95;10.40;;;;;;;;;;5012611;28;20044;-67
2021/12/23 11:03:17;;;;;;;17.35;9.57;;;;;;;;;;5012270;28;20030;-68
2021/12/23 11:06:00;;;;;;;23.33;10.63;;;;;;;;;;5012116;28;20034;-66
2021/12/23 11:11:33;;;;;;;18.85;9.70;;;;;;;;;;5011956;28;20041;-67
2021/12/23 11:41:59;;;;;;;18.43;8.80;;;;;;;;;;5035896;28;20461;-69
2021/12/23 11:44:25;;;;;;;17.75;8.63;;;;;;;;;;5037511;28;20413;-67
2021/12/23 11:46:55;;;;;;;15.90;8.80;;;;;;;;;;5037206;28;20030;-69
2021/12/23 11:49:22;;;;;;;34.30;10.98;;;;;;;;;;5035170;28;20033;-66
2021/12/23 11:54:20;;;;;;;17.45;8.93;;;;;;;;;;5034252;28;20053;-66
2021/12/23 11:56:51;;;;;;;18.95;9.25;;;;;;;;;;5034534;28;20041;-66
2021/12/23 11:59:18;;;;;;;18.55;9.70;;;;;;;;;;5034271;28;20025;-66
2021/12/23 12:01:53;;;;;;;17.50;7.97;;;;;;;;;;5035252;28;20086;-65
2021/12/23 12:04:23;;;;;;;13.82;7.82;;;;;;;;;;5034754;28;20049;-66
2021/12/23 12:06:50;;;;;;;14.27;8.38;;;;;;;;;;5035392;28;20029;-66
2021/12/23 12:09:17;;;;;;;13.13;8.52;;;;;;;;;;5034465;28;20098;-66
2021/12/23 12:12:07;;;;;;;19.15;9.10;;;;;;;;;;5034552;28;20041;-66
2021/12/23 12:14:46;;;;;;;16.70;8.95;;;;;;;;;;5034044;28;20068;-67
2021/12/23 12:17:24;;;;;;;16.63;7.90;;;;;;;;;;5033016;28;20038;-67
2021/12/23 12:19:58;;;;;;;18.23;9.13;;;;;;;;;;5033543;28;20033;-67
2021/12/23 12:22:46;;;;;;;16.80;9.05;;;;;;;;;;5032640;28;20040;-64
2021/12/23 12:25:58;;;;;;;18.73;9.75;;;;;;;;;;5034326;28;20032;-65
2021/12/23 12:28:31;;;;;;;25.73;9.80;;;;;;;;;;5022869;28;20350;-65
2021/12/23 12:31:05;;;;;;;17.60;10.63;;;;;;;;;;4999547;28;20034;-66
2021/12/23 12:33:34;;;;;;;18.92;9.70;;;;;;;;;;5002321;28;20038;-65
2021/12/23 12:36:05;;;;;;;17.85;10.32;;;;;;;;;;4995248;28;20030;-68
2021/12/23 12:38:39;;;;;;;19.92;9.27;;;;;;;;;;4995343;28;20033;-66
2021/12/23 12:41:06;;;;;;;;;;;;;;;;;;5010478;28;20038;-66
2021/12/23 12:43:46;;;;;;;19.23;9.05;;;;;;;;;;5014071;28;20434;-65
2021/12/23 12:46:22;;;;;;;16.92;9.05;;;;;;;;;;5013780;28;20038;-65
2021/12/23 12:49:00;;;;;;;18.85;11.00;;;;;;;;;;5013675;28;20515;-66
2021/12/23 12:51:32;;;;;;;21.33;12.48;;;;;;;;;;5014197;28;20140;-66
2021/12/23 12:54:04;;;;;;;13.35;9.00;;;;;;;;;;5013837;28;20044;-65
2021/12/23 12:56:35;;;;;;;16.70;9.02;;;;;;;;;;5002950;28;20496;-68
2021/12/23 12:59:05;;;;;;;24.95;11.80;;;;;;;;;;4994337;28;20049;-66
2021/12/23 13:01:41;;;;;;;22.70;10.48;;;;;;;;;;4994313;28;20114;-68
2021/12/23 13:04:23;;;;;;;20.88;9.50;;;;;;;;;;4993076;28;20113;-66
2021/12/23 13:06:51;;;;;;;18.58;8.40;;;;;;;;;;4994163;28;20100;-66
2021/12/23 13:09:48;;;;;;;15.25;8.55;;;;;;;;;;4993960;28;20150;-68
2021/12/23 13:12:56;;;;;;;15.30;8.10;;;;;;;;;;5012029;28;20404;-66
2021/12/23 13:15:51;;;;;;;20.40;9.85;;;;;;;;;;4994058;28;20294;-66
2021/12/23 13:18:21;;;;;;;25.40;9.90;;;;;;;;;;4993721;28;20114;-66
2021/12/23 13:20:56;;;;;;;17.77;8.00;;;;;;;;;;4994144;28;20039;-66
2021/12/23 13:23:33;;;;;;;25.17;9.60;;;;;;;;;;4993747;28;20070;-68
2021/12/23 13:26:13;;;;;;;14.40;8.40;;;;;;;;;;4993564;28;20046;-66
2021/12/23 13:28:51;;;;;;;24.23;9.02;;;;;;;;;;4993313;28;20129;-67
2021/12/23 13:31:22;;;;;;;17.15;9.55;;;;;;;;;;4993740;28;20030;-67
2021/12/23 13:33:55;;;;;;;20.58;8.98;;;;;;;;;;4993974;28;20031;-66
2021/12/23 13:36:38;;;;;;;14.77;8.32;;;;;;;;;;4994053;28;20173;-66
2021/12/23 13:39:07;;;;;;;15.80;9.53;;;;;;;;;;4993779;28;20030;-67
2021/12/23 13:41:44;;;;;;;18.30;10.10;;;;;;;;;;4994003;28;20376;-67
2021/12/23 13:44:16;;;;;;;18.75;8.82;;;;;;;;;;4993346;28;20039;-67
2021/12/23 13:46:44;;;;;;;17.20;8.95;;;;;;;;;;4993453;28;20104;-65
2021/12/23 13:49:10;;;;;;;13.23;7.80;;;;;;;;;;4993249;28;20026;-65
2021/12/23 13:51:39;;;;;;;13.98;8.68;;;;;;;;;;4993608;28;20477;-66
2021/12/23 13:54:10;;;;;;;15.35;7.93;;;;;;;;;;4993573;28;20178;-66
2021/12/23 13:56:38;;;;;;;31.77;13.20;;;;;;;;;;4993879;28;20102;-66
2021/12/23 13:59:12;;;;;;;19.58;9.57;;;;;;;;;;4991080;28;20034;-68
2021/12/23 14:01:50;;;;;;;18.02;8.00;;;;;;;;;;5031385;28;20044;-69
2021/12/23 14:04:35;;;;;;;15.25;7.68;;;;;;;;;;5030503;28;20045;-69
2021/12/23 14:07:07;;;;;;;10.80;6.10;;;;;;;;;;5031676;28;20030;-69
2021/12/23 14:09:40;;;;;;;12.82;7.05;;;;;;;;;;5031795;28;20041;-69
2021/12/23 14:12:08;;;;;;;18.05;8.23;;;;;;;;;;5031754;28;20030;-68
2021/12/23 14:14:34;;;;;;;16.83;8.27;;;;;;;;;;5032181;28;20033;-67
2021/12/23 14:17:41;;;;;;;15.85;7.35;;;;;;;;;;5030090;28;20037;-68
2021/12/23 14:23:12;;;;;;;16.13;7.47;;;;;;;;;;4989425;28;20374;-72
2021/12/23 14:25:43;;;;;;;14.98;7.70;;;;;;;;;;4998406;28;20034;-67
2021/12/23 14:28:11;;;;;;;24.48;7.30;;;;;;;;;;5011399;28;20473;-69
2021/12/23 14:31:02;;;;;;;11.60;6.32;;;;;;;;;;5011058;28;20030;-69
2021/12/23 14:33:34;;;;;;;10.77;6.65;;;;;;;;;;5011718;28;20042;-70
2021/12/23 14:36:12;;;;;;;11.15;7.25;;;;;;;;;;5011268;28;20026;-65
2021/12/23 14:38:54;;;;;;;12.95;7.55;;;;;;;;;;5011013;28;20558;-68
2021/12/23 14:41:20;;;;;;;16.70;8.15;;;;;;;;;;5010290;28;20137;-72
2021/12/23 14:44:00;;;;;;;14.65;8.07;;;;;;;;;;5011563;28;20492;-69
2021/12/23 14:46:37;;;;;;;15.35;7.85;;;;;;;;;;5011234;28;20034;-69
2021/12/23 14:51:34;;;;;;;16.38;8.40;;;;;;;;;;5011370;28;20018;-69
2021/12/23 14:54:13;;;;;;;15.60;8.55;;;;;;;;;;5011094;28;20026;-70
2021/12/23 14:56:50;;;;;;;18.40;9.45;;;;;;;;;;5011346;28;20042;-69
2021/12/23 14:59:21;;;;;;;19.35;9.13;;;;;;;;;;5011131;28;20153;-68
2021/12/23 15:02:05;;;;;;;20.48;9.93;;;;;;;;;;5011272;28;20049;-69
2021/12/23 15:04:31;;;;;;;19.85;10.93;;;;;;;;;;5011191;28;20508;-70
2021/12/23 15:07:03;;;;;;;21.88;11.65;;;;;;;;;;5011130;28;20090;-69
2021/12/23 15:09:32;;;;;;;21.75;10.70;;;;;;;;;;5010824;28;20030;-70
2021/12/23 15:12:16;;;;;;;19.67;11.63;;;;;;;;;;5015062;28;20022;-70
2021/12/23 15:14:48;;;;;;;29.88;12.43;;;;;;;;;;5014008;28;20026;-69
2021/12/23 15:17:31;;;;;;;24.08;14.45;;;;;;;;;;5016461;28;20099;-70
2021/12/23 15:19:58;;;;;;;43.58;17.70;;;;;;;;;;5034373;28;20038;-68
2021/12/23 15:22:27;;;;;;;40.65;19.50;;;;;;;;;;5034251;28;20029;-69
2021/12/23 15:25:07;;;;;;;54.30;22.20;;;;;;;;;;5034220;28;20073;-69
2021/12/23 15:27:38;;;;;;;66.00;28.48;;;;;;;;;;5034392;28;20069;-70
2021/12/23 15:30:17;;;;;;;82.30;34.50;;;;;;;;;;5027842;28;20527;-70
2021/12/23 15:32:44;;;;;;;53.28;26.30;;;;;;;;;;5014008;28;20061;-69
2021/12/23 15:35:16;;;;;;;46.55;23.17;;;;;;;;;;5015611;28;20069;-70
2021/12/23 15:37:48;;;;;;;49.05;22.45;;;;;;;;;;4993762;28;20421;-71
2021/12/23 15:40:24;;;;;;;45.60;23.88;;;;;;;;;;4994453;28;20438;-70
2021/12/23 15:42:52;;;;;;;46.92;24.73;;;;;;;;;;4994485;28;20038;-69
2021/12/23 15:45:18;;;;;;;40.05;22.60;;;;;;;;;;4994090;28;20465;-69
2021/12/23 15:47:47;;;;;;;43.88;20.25;;;;;;;;;;4994590;28;20437;-70
2021/12/23 15:50:14;;;;;;;30.20;16.08;;;;;;;;;;4994598;28;20384;-69
2021/12/23 15:52:40;;;;;;;24.67;14.13;;;;;;;;;;4993651;28;20117;-70